HTKJ

Kilimanjaro International Airport

Arusha, Tanzania
METAR HTKJ 171800Z 09012KT 9999 FEW022 FEW023CB SCT090 25/17 Q1012 NOSIG
Observed Flight Rules
Dec-17 @ 18:00 UTC (4 hours ago) Visual Flight Rules
Wind Visibility Clouds
90° at 12 knots 10,000+ meters
  • Few at 2,200' AGL
  • Few at 2,300' AGL
  • Scattered at 9,000' AGL
Temperatures Readings
Current 25°C / 77°F
Dewpoint 17°C / 63°F
Humidity 61%
Altimeter 29.88" Hg
Pressure 1012 hPa
Elevation 896
METAR HTKJ 171800Z 09012KT 9999 FEW022 FEW023CB SCT090 25/17 Q1012 NOSIG
Observed Flight Rules
Dec-17 @ 18:00 UTC
(4 hours ago)
VFR
Wind Visibility
90° at 12 knots 10,000+ meters
Clouds
  • Few at 2,200' AGL
  • Few at 2,300' AGL
  • Scattered at 9,000' AGL
Temperature Dewpoint
25°C / 77°F 17°C / 63°F
Humidity Altimeter Pressure
61% 29.88" Hg 1012 hPa